Time;durP1;ratioP1;P1;durP2;ratioP2;P2;SDS_P1;SDS_P2;PMS_P1;PMS_P2;Temp;Humidity;BMP_temperature;BMP_pressure;BME280_temperature;BME280_humidity;BME280_pressure;Samples;Min_cycle;Max_cycle;Signal;HPM_P1;HPM_P2
2023/01/04 00:00:55;;;;;;;;;0.00;0.00;;;;;8.44;72.66;100451.09;5037783;28;8828;-60
2023/01/04 00:03:23;;;;;;;;;1.00;1.00;;;;;8.49;72.93;100464.06;5038100;28;9768;-60
2023/01/04 00:05:51;;;;;;;;;0.50;0.50;;;;;8.53;72.58;100476.22;5038124;28;9499;-60
2023/01/04 00:08:19;;;;;;;;;0.00;0.00;;;;;8.53;72.53;100444.38;5037705;28;8859;-60
2023/01/04 00:10:46;;;;;;;;;0.50;0.00;;;;;8.53;72.60;100461.13;5037927;28;8859;-59
2023/01/04 00:13:14;;;;;;;;;3.25;0.75;;;;;8.51;72.58;100444.44;5037576;28;8855;-60
2023/01/04 00:15:42;;;;;;;;;0.00;0.00;;;;;8.51;72.38;100438.31;5037061;28;8859;-60
2023/01/04 00:18:10;;;;;;;;;0.75;0.00;;;;;8.50;72.59;100456.03;5037697;28;8848;-60
2023/01/04 00:20:38;;;;;;;;;0.00;0.00;;;;;8.49;72.41;100437.53;5038006;28;9510;-58
2023/01/04 00:23:05;;;;;;;;;0.00;0.00;;;;;8.46;72.47;100438.59;5037583;28;8836;-60
2023/01/04 00:25:33;;;;;;;;;0.00;0.00;;;;;8.42;72.88;100428.25;5037643;28;8874;-59
2023/01/04 00:28:01;;;;;;;;;0.75;0.00;;;;;8.38;73.05;100416.13;5037330;28;8906;-60
2023/01/04 00:30:29;;;;;;;;;0.00;0.00;;;;;8.35;72.92;100408.38;5036914;28;8824;-60
2023/01/04 00:32:57;;;;;;;;;0.00;0.00;;;;;8.33;73.05;100411.13;5037621;28;8878;-60
2023/01/04 00:35:25;;;;;;;;;0.25;0.00;;;;;8.29;73.09;100416.72;5036901;28;8844;-60
2023/01/04 00:38:11;;;;;;;;;1.00;1.00;;;;;8.27;73.16;100400.88;5037428;28;8828;-59
2023/01/04 00:40:39;;;;;;;;;0.25;0.00;;;;;8.33;73.17;100400.50;5036590;28;8867;-60
2023/01/04 00:43:07;;;;;;;;;1.00;1.00;;;;;8.38;73.04;100386.94;5037380;28;8851;-60
2023/01/04 00:45:35;;;;;;;;;0.25;0.25;;;;;8.40;72.77;100396.53;5037479;28;8832;-60
2023/01/04 00:48:03;;;;;;;;;0.00;0.00;;;;;8.41;73.07;100389.41;5037472;28;8879;-60
2023/01/04 00:50:30;;;;;;;;;1.00;1.00;;;;;8.44;72.89;100381.25;5037019;28;8837;-60
2023/01/04 00:52:58;;;;;;;;;0.00;0.00;;;;;8.45;72.76;100378.47;5037033;28;8820;-60
2023/01/04 00:55:26;;;;;;;;;1.00;1.00;;;;;8.47;72.54;100378.41;5037231;28;8816;-60
2023/01/04 00:57:54;;;;;;;;;2.50;1.00;;;;;8.50;72.86;100333.09;5036725;28;8840;-60
2023/01/04 01:00:23;;;;;;;;;0.50;0.50;;;;;8.53;72.47;100348.81;5036868;28;8836;-60
2023/01/04 01:02:51;;;;;;;;;0.25;0.25;;;;;8.56;72.85;100338.84;5037038;28;8930;-60
2023/01/04 01:05:19;;;;;;;;;0.00;0.00;;;;;8.59;72.30;100362.53;5037150;28;9711;-58
2023/01/04 01:07:47;;;;;;;;;1.00;1.00;;;;;8.62;72.65;100349.06;5037018;28;8844;-59
2023/01/04 01:10:15;;;;;;;;;0.00;0.00;;;;;8.63;72.47;100340.16;5036580;28;8847;-60
2023/01/04 01:12:43;;;;;;;;;1.00;0.00;;;;;8.67;72.33;100330.19;5036984;28;8844;-60
2023/01/04 01:15:10;;;;;;;;;0.75;0.50;;;;;8.67;72.52;100293.88;5036915;28;8848;-58
2023/01/04 01:17:38;;;;;;;;;0.00;0.00;;;;;8.68;72.56;100347.81;5036230;28;8840;-60
2023/01/04 01:20:07;;;;;;;;;0.75;0.75;;;;;8.68;72.51;100311.50;5036217;28;8837;-60
2023/01/04 01:22:34;;;;;;;;;0.00;0.00;;;;;8.68;72.50;100314.13;5035829;28;8851;-60
2023/01/04 01:25:02;;;;;;;;;0.00;0.00;;;;;8.70;72.59;100319.34;5035717;28;8869;-60
2023/01/04 01:27:30;;;;;;;;;0.00;0.00;;;;;8.75;72.69;100322.56;5035331;28;8840;-60
2023/01/04 01:29:59;;;;;;;;;0.50;0.50;;;;;8.79;72.47;100322.25;5035167;28;8828;-60
2023/01/04 01:32:27;;;;;;;;;0.00;0.00;;;;;8.79;72.49;100314.31;5035818;28;8840;-59
2023/01/04 01:34:55;;;;;;;;;0.00;0.00;;;;;8.80;72.52;100320.47;5035261;28;8848;-60
2023/01/04 01:37:22;;;;;;;;;0.75;0.00;;;;;8.80;72.33;100312.50;5035408;28;8896;-60
2023/01/04 01:39:50;;;;;;;;;0.00;0.00;;;;;8.79;72.60;100303.69;5036037;28;8946;-60
2023/01/04 01:42:18;;;;;;;;;0.00;0.00;;;;;8.80;72.53;100281.47;5036354;28;8856;-59
2023/01/04 01:44:45;;;;;;;;;0.00;0.00;;;;;8.81;72.53;100301.75;5036079;28;8863;-60
2023/01/04 01:47:13;;;;;;;;;0.75;0.00;;;;;8.81;72.75;100285.84;5035194;28;8873;-60
2023/01/04 01:49:41;;;;;;;;;0.00;0.00;;;;;8.77;73.18;100287.00;5035915;28;8848;-59
2023/01/04 01:52:09;;;;;;;;;0.00;0.00;;;;;8.71;72.91;100292.72;5035589;28;8824;-59
2023/01/04 01:54:37;;;;;;;;;1.00;0.00;;;;;8.65;73.49;100295.78;5036570;28;9491;-59
2023/01/04 01:57:05;;;;;;;;;0.00;0.00;;;;;8.61;73.49;100281.03;5036149;28;8844;-59
2023/01/04 01:59:32;;;;;;;;;0.00;0.00;;;;;8.57;74.08;100265.38;5035553;28;8816;-59
2023/01/04 02:02:00;;;;;;;;;0.00;0.00;;;;;8.54;74.06;100271.75;5035923;28;8834;-60
2023/01/04 02:04:28;;;;;;;;;0.00;0.00;;;;;8.51;74.08;100260.50;5036117;28;8825;-59
2023/01/04 02:06:55;;;;;;;;;0.00;0.00;;;;;8.47;74.26;100269.59;5035935;28;8829;-59
2023/01/04 02:09:23;;;;;;;;;1.75;0.00;;;;;8.46;74.11;100268.75;5036056;28;8852;-59
2023/01/04 02:11:51;;;;;;;;;0.00;0.00;;;;;8.46;74.47;100244.88;5036066;28;8839;-59
2023/01/04 02:14:28;;;;;;;;;0.00;0.00;;;;;8.46;74.41;100236.91;5036219;28;8851;-60
2023/01/04 02:16:56;;;;;;;;;0.00;0.00;;;;;8.50;74.57;100246.34;5035975;28;8840;-59
2023/01/04 02:19:24;;;;;;;;;3.00;3.00;;;;;8.54;74.91;100239.91;5035719;28;8859;-59
2023/01/04 02:21:52;;;;;;;;;0.00;0.00;;;;;8.57;74.51;100236.19;5035648;28;8824;-59
2023/01/04 02:24:20;;;;;;;;;3.00;1.00;;;;;8.55;74.82;100235.44;5035712;28;8824;-60
2023/01/04 02:26:47;;;;;;;;;0.00;0.00;;;;;8.55;74.85;100220.38;5035730;28;8864;-60
2023/01/04 02:29:15;;;;;;;;;0.00;0.00;;;;;8.58;75.36;100230.78;5035680;28;8816;-59
2023/01/04 02:31:43;;;;;;;;;1.00;1.00;;;;;8.59;75.03;100223.69;5035629;28;8825;-59
2023/01/04 02:34:11;;;;;;;;;0.00;0.00;;;;;8.59;75.57;100227.16;5035243;28;8828;-59
2023/01/04 02:36:39;;;;;;;;;0.00;0.00;;;;;8.60;75.65;100220.06;5034812;28;8821;-59
2023/01/04 02:39:06;;;;;;;;;1.00;1.00;;;;;8.60;75.41;100215.59;5036067;28;8843;-59
2023/01/04 02:41:35;;;;;;;;;0.25;0.00;;;;;8.63;75.65;100215.41;5035589;28;8855;-60
2023/01/04 02:46:48;;;;;;;;;0.75;0.00;;;;;8.73;75.42;100194.41;5035937;28;8844;-60
2023/01/04 02:52:00;;;;;;;;;0.75;0.75;;;;;8.75;75.77;100189.81;5035523;28;8836;-60
2023/01/04 02:54:31;;;;;;;;;1.50;1.00;;;;;8.71;75.50;100186.53;5035567;28;8851;-59
2023/01/04 02:56:59;;;;;;;;;1.00;1.00;;;;;8.66;76.28;100180.66;5035524;28;8849;-60
2023/01/04 02:59:32;;;;;;;;;0.00;0.00;;;;;8.61;76.01;100176.63;5034926;28;8817;-59
2023/01/04 03:07:30;;;;;;;;;0.00;0.00;;;;;8.33;77.65;100175.00;5038686;28;8926;-59
2023/01/04 03:09:58;;;;;;;;;0.00;0.00;;;;;8.25;78.38;100172.00;5037957;28;8837;-59
2023/01/04 03:12:31;;;;;;;;;1.50;1.50;;;;;8.20;78.68;100162.66;5038798;28;8836;-58
2023/01/04 03:15:00;;;;;;;;;0.00;0.00;;;;;8.16;78.55;100169.06;5038792;28;9581;-59
2023/01/04 03:17:27;;;;;;;;;0.00;0.00;;;;;8.13;78.97;100170.13;5039106;28;8856;-59
2023/01/04 03:19:55;;;;;;;;;1.00;1.00;;;;;8.12;79.55;100144.56;5038773;28;8816;-60
2023/01/04 03:36:11;;;;;;;;;0.00;0.00;;;;;8.08;81.05;100144.88;5038808;28;8848;-59
2023/01/04 03:49:39;;;;;;;;;0.00;0.00;;;;;8.10;82.02;100132.34;5038562;28;8858;-59
2023/01/04 03:52:07;;;;;;;;;0.00;0.00;;;;;8.13;81.62;100148.06;5037879;28;8863;-56
2023/01/04 03:54:35;;;;;;;;;0.00;0.00;;;;;8.15;81.77;100119.63;5038720;28;8844;-58
2023/01/04 03:57:02;;;;;;;;;0.00;0.00;;;;;8.16;81.77;100138.09;5038551;28;8844;-59
2023/01/04 03:59:30;;;;;;;;;0.00;0.00;;;;;8.18;82.25;100135.34;5038288;28;8832;-58
2023/01/04 04:01:58;;;;;;;;;0.00;0.00;;;;;8.19;82.22;100116.69;5037907;28;8848;-59
2023/01/04 04:09:56;;;;;;;;;1.00;0.00;;;;;8.30;82.35;100106.22;5038053;28;8825;-58
2023/01/04 04:12:24;;;;;;;;;0.00;0.00;;;;;8.35;82.17;100082.88;5037743;28;8840;-56
2023/01/04 04:14:52;;;;;;;;;0.00;0.00;;;;;8.42;82.38;100118.66;5037028;28;8825;-59
2023/01/04 04:17:19;;;;;;;;;0.00;0.00;;;;;8.52;81.39;100102.97;5038129;28;8855;-60
2023/01/04 04:19:47;;;;;;;;;0.00;0.00;;;;;8.59;81.40;100105.06;5037767;28;8840;-59
2023/01/04 04:22:15;;;;;;;;;0.25;0.25;;;;;8.61;81.79;100100.53;5037580;28;8809;-59
2023/01/04 04:24:42;;;;;;;;;0.00;0.00;;;;;8.63;81.78;100095.09;5037512;28;8840;-59
2023/01/04 04:27:10;;;;;;;;;0.00;0.00;;;;;8.61;81.71;100078.44;5037646;28;8837;-59
2023/01/04 04:29:37;;;;;;;;;1.00;0.00;;;;;8.60;82.00;100093.50;5037831;28;9533;-60
2023/01/04 04:32:05;;;;;;;;;1.00;1.00;;;;;8.60;81.96;100082.03;5037558;28;8836;-57
2023/01/04 04:34:33;;;;;;;;;1.00;0.75;;;;;8.60;81.86;100088.19;5036759;28;8828;-59
2023/01/04 04:37:01;;;;;;;;;0.50;0.50;;;;;8.60;82.20;100074.09;5037583;28;9778;-59
2023/01/04 04:39:28;;;;;;;;;4.00;3.00;;;;;8.56;82.24;100075.25;5037184;28;8859;-59
2023/01/04 04:41:56;;;;;;;;;0.00;0.00;;;;;8.52;82.35;100076.41;5037030;28;8986;-58
2023/01/04 04:44:23;;;;;;;;;0.00;0.00;;;;;8.51;82.67;100046.38;5036741;28;8906;-59
2023/01/04 04:46:51;;;;;;;;;0.50;0.50;;;;;8.49;82.44;100066.88;5037056;28;8840;-59
2023/01/04 04:49:19;;;;;;;;;0.50;0.50;;;;;8.47;82.82;100058.16;5036995;28;8829;-57
2023/01/04 04:51:46;;;;;;;;;0.00;0.00;;;;;8.47;82.59;100046.69;5037068;28;8852;-59
2023/01/04 04:54:14;;;;;;;;;0.00;0.00;;;;;8.45;83.00;100033.53;5036432;28;8835;-58
2023/01/04 04:56:42;;;;;;;;;1.00;1.00;;;;;8.44;83.01;100046.91;5036141;28;8851;-58
2023/01/04 04:59:09;;;;;;;;;0.75;0.75;;;;;8.43;83.50;100045.22;5036913;28;8828;-58
2023/01/04 05:01:37;;;;;;;;;0.00;0.00;;;;;8.43;83.62;100045.22;5036813;28;8887;-58
2023/01/04 05:04:05;;;;;;;;;0.25;0.25;;;;;8.44;83.93;100034.47;5036301;28;8894;-57
2023/01/04 05:06:33;;;;;;;;;0.00;0.00;;;;;8.44;83.96;100020.38;5036533;28;8851;-57
2023/01/04 05:09:01;;;;;;;;;1.50;1.00;;;;;8.43;84.06;100035.44;5036409;28;8836;-57
2023/01/04 05:14:14;;;;;;;;;1.00;1.00;;;;;8.47;84.54;100036.94;5036469;28;8832;-58
2023/01/04 05:16:43;;;;;;;;;1.00;1.00;;;;;8.50;84.91;100020.78;5035720;28;8845;-57
2023/01/04 05:19:11;;;;;;;;;0.50;0.00;;;;;8.53;84.42;100017.06;5036265;28;8833;-57
2023/01/04 05:21:40;;;;;;;;;0.00;0.00;;;;;8.57;84.57;99992.88;5036285;28;8820;-58
2023/01/04 05:24:08;;;;;;;;;0.50;0.50;;;;;8.64;84.20;100022.47;5035568;28;8840;-56
2023/01/04 05:26:35;;;;;;;;;0.00;0.00;;;;;8.71;84.00;100029.91;5035438;28;8833;-58
2023/01/04 05:29:03;;;;;;;;;0.00;0.00;;;;;8.77;83.84;99991.44;5036625;28;8886;-58
2023/01/04 05:31:30;;;;;;;;;0.25;0.00;;;;;8.83;83.68;99997.16;5036452;28;9486;-57
2023/01/04 05:33:58;;;;;;;;;0.50;0.50;;;;;8.88;83.51;100021.59;5036224;28;8841;-58
2023/01/04 05:36:25;;;;;;;;;0.50;0.00;;;;;8.92;83.57;100007.16;5035898;28;8812;-58
2023/01/04 05:38:53;;;;;;;;;1.00;0.00;;;;;8.96;83.44;100002.47;5035673;28;8817;-58
2023/01/04 05:44:06;;;;;;;;;0.00;0.00;;;;;9.05;83.06;100013.25;5035866;28;9537;-56
2023/01/04 05:46:33;;;;;;;;;0.00;0.00;;;;;9.06;83.22;100004.34;5035774;28;8836;-58
2023/01/04 05:49:02;;;;;;;;;0.00;0.00;;;;;9.06;83.35;99996.38;5035671;28;8840;-57
2023/01/04 05:51:30;;;;;;;;;0.00;0.00;;;;;9.10;83.03;99995.19;5036165;28;9494;-58
2023/01/04 05:53:57;;;;;;;;;0.00;0.00;;;;;9.14;82.85;100007.28;5035787;28;8852;-57
2023/01/04 05:56:25;;;;;;;;;0.00;0.00;;;;;9.18;82.83;99997.28;5035419;28;8844;-57
2023/01/04 05:58:52;;;;;;;;;0.00;0.00;;;;;9.22;83.23;99988.97;5035658;28;8817;-57
2023/01/04 06:01:20;;;;;;;;;0.00;0.00;;;;;9.26;82.98;99974.50;5035776;28;8829;-57
2023/01/04 06:03:48;;;;;;;;;0.00;0.00;;;;;9.29;82.96;99986.72;5035637;28;8845;-56
2023/01/04 06:06:17;;;;;;;;;0.00;0.00;;;;;9.31;82.95;99980.31;5035631;28;8836;-58
2023/01/04 06:08:44;;;;;;;;;0.00;0.00;;;;;9.32;82.84;99989.13;5035708;28;8820;-58
2023/01/04 06:11:12;;;;;;;;;0.00;0.00;;;;;9.34;82.40;99974.78;5035769;28;8968;-56
2023/01/04 06:13:40;;;;;;;;;0.25;0.25;;;;;9.37;82.94;99992.31;5035157;28;8829;-58
2023/01/04 06:16:08;;;;;;;;;0.00;0.00;;;;;9.40;82.68;99979.63;5035627;28;9705;-57
2023/01/04 06:18:35;;;;;;;;;1.00;0.00;;;;;9.43;82.50;99976.75;5035690;28;8853;-59
2023/01/04 06:21:03;;;;;;;;;0.00;0.00;;;;;9.47;82.28;99977.38;5035512;28;8836;-58
2023/01/04 06:23:31;;;;;;;;;0.00;0.00;;;;;9.51;82.60;99958.44;5035454;28;8850;-59
2023/01/04 06:25:58;;;;;;;;;0.00;0.00;;;;;9.54;82.36;99958.19;5035065;28;8882;-57
2023/01/04 06:28:27;;;;;;;;;0.00;0.00;;;;;9.57;82.46;99955.28;5034728;28;8840;-57
2023/01/04 06:30:54;;;;;;;;;0.00;0.00;;;;;9.58;81.98;99954.34;5034993;28;8821;-57
2023/01/04 06:33:22;;;;;;;;;0.50;0.00;;;;;9.61;82.32;99975.38;5035162;28;8834;-57
2023/01/04 06:35:50;;;;;;;;;0.00;0.00;;;;;9.65;81.60;99954.75;5034718;28;8828;-58
2023/01/04 06:38:17;;;;;;;;;0.00;0.00;;;;;9.67;82.05;99951.00;5038011;28;8836;-59
2023/01/04 06:40:45;;;;;;;;;0.00;0.00;;;;;9.70;81.56;99953.41;5038953;28;8840;-58
2023/01/04 06:43:13;;;;;;;;;0.00;0.00;;;;;9.71;82.12;99938.31;5038817;28;8805;-59
2023/01/04 06:45:41;;;;;;;;;0.25;0.25;;;;;9.72;81.85;99930.22;5039242;28;8970;-59
2023/01/04 06:48:08;;;;;;;;;0.50;0.00;;;;;9.74;82.06;99941.59;5038874;28;8999;-58
2023/01/04 06:50:44;;;;;;;;;0.00;0.00;;;;;9.76;81.66;99938.81;5037884;28;8828;-59
2023/01/04 06:53:13;;;;;;;;;0.00;0.00;;;;;9.76;81.26;99934.34;5036455;28;8863;-58
2023/01/04 06:55:40;;;;;;;;;0.00;0.00;;;;;9.77;81.92;99964.44;5036672;28;9514;-59
2023/01/04 06:58:08;;;;;;;;;0.00;0.00;;;;;9.71;81.89;99951.63;5035718;28;8868;-59
2023/01/04 07:00:36;;;;;;;;;0.00;0.00;;;;;9.63;81.87;99936.22;5035969;28;8840;-57
2023/01/04 07:03:04;;;;;;;;;0.00;0.00;;;;;9.58;82.52;99935.72;5036140;28;8828;-59
2023/01/04 07:05:42;;;;;;;;;0.00;0.00;;;;;9.56;82.76;99937.66;5037263;28;8848;-59
2023/01/04 07:08:09;;;;;;;;;0.50;0.00;;;;;9.57;82.50;99942.00;5037077;28;8835;-58
2023/01/04 07:10:37;;;;;;;;;0.00;0.00;;;;;9.57;82.83;99934.03;5037655;28;8839;-59
2023/01/04 07:13:05;;;;;;;;;0.00;0.00;;;;;9.58;82.45;99924.25;5037223;28;8833;-59
2023/01/04 07:15:33;;;;;;;;;0.00;0.00;;;;;9.55;82.69;99928.00;5037790;28;8958;-58
2023/01/04 07:18:06;;;;;;;;;0.00;0.00;;;;;9.53;82.64;99937.91;5037137;28;8837;-58
2023/01/04 07:20:34;;;;;;;;;0.00;0.00;;;;;9.56;83.25;99940.31;5037746;28;9491;-57
2023/01/04 07:23:02;;;;;;;;;0.00;0.00;;;;;9.58;82.68;99933.06;5037518;28;8966;-58
2023/01/04 07:25:30;;;;;;;;;0.00;0.00;;;;;9.61;82.61;99930.19;5037596;28;8844;-58
2023/01/04 07:27:58;;;;;;;;;0.00;0.00;;;;;9.63;83.16;99941.56;5037500;28;8846;-57
2023/01/04 07:30:25;;;;;;;;;0.00;0.00;;;;;9.66;83.12;99921.88;5037782;28;8855;-56
2023/01/04 07:32:53;;;;;;;;;0.00;0.00;;;;;9.69;82.77;99929.59;5037304;28;8840;-57
2023/01/04 07:35:21;;;;;;;;;0.00;0.00;;;;;9.70;83.03;99950.75;5036818;28;8833;-58
2023/01/04 07:37:49;;;;;;;;;0.00;0.00;;;;;9.71;82.71;99943.63;5037350;28;8837;-58
2023/01/04 07:40:24;;;;;;;;;0.00;0.00;;;;;9.69;82.90;99950.88;5037572;28;8922;-57
2023/01/04 07:42:52;;;;;;;;;0.50;0.50;;;;;9.69;82.64;99951.72;5036021;28;8860;-57
2023/01/04 07:45:19;;;;;;;;;1.00;0.00;;;;;9.67;83.25;99942.16;5033293;28;8829;-58
2023/01/04 07:47:47;;;;;;;;;0.00;0.00;;;;;9.62;83.48;99946.97;5037252;28;8878;-58
2023/01/04 07:50:15;;;;;;;;;0.00;0.00;;;;;9.59;83.27;99958.72;5036264;28;8832;-58
2023/01/04 07:52:43;;;;;;;;;0.00;0.00;;;;;9.59;83.71;99950.75;5036595;28;8917;-56
2023/01/04 07:55:11;;;;;;;;;0.00;0.00;;;;;9.60;83.29;99962.19;5036774;28;8833;-58
2023/01/04 07:57:39;;;;;;;;;0.00;0.00;;;;;9.61;83.91;99974.53;5035805;28;8829;-59
2023/01/04 08:00:06;;;;;;;;;0.00;0.00;;;;;9.61;84.02;99962.09;5036477;28;8837;-57
2023/01/04 08:02:34;;;;;;;;;0.00;0.00;;;;;9.60;83.99;99957.75;5036330;28;8839;-57
2023/01/04 08:05:03;;;;;;;;;0.00;0.00;;;;;9.55;84.18;99975.84;5036597;28;8833;-57
2023/01/04 08:07:30;;;;;;;;;0.00;0.00;;;;;9.50;84.01;99959.38;5035935;28;8851;-56
2023/01/04 08:09:58;;;;;;;;;0.00;0.00;;;;;9.45;84.70;99958.91;5037051;28;9534;-56
2023/01/04 08:12:26;;;;;;;;;0.00;0.00;;;;;9.42;84.98;99959.09;5035712;28;8840;-58
2023/01/04 08:14:53;;;;;;;;;0.00;0.00;;;;;9.40;84.60;99953.06;5035920;28;8832;-57
2023/01/04 08:17:21;;;;;;;;;0.00;0.00;;;;;9.38;85.34;99955.00;5036210;28;8864;-56
2023/01/04 08:19:49;;;;;;;;;0.00;0.00;;;;;9.39;85.33;99945.19;5036460;28;8848;-58
2023/01/04 08:22:17;;;;;;;;;0.00;0.00;;;;;9.39;85.33;99931.91;5036728;28;9491;-56
2023/01/04 08:24:45;;;;;;;;;0.00;0.00;;;;;9.36;85.55;99927.69;5036122;28;8976;-58
2023/01/04 08:27:12;;;;;;;;;0.25;0.00;;;;;9.39;85.64;99943.41;5036755;28;8841;-56
2023/01/04 08:29:41;;;;;;;;;0.00;0.00;;;;;9.41;86.03;99940.63;5036486;28;8840;-58
2023/01/04 08:32:09;;;;;;;;;0.00;0.00;;;;;9.41;86.30;99930.84;5037045;28;9502;-57
2023/01/04 08:34:37;;;;;;;;;0.00;0.00;;;;;9.43;86.39;99923.59;5036428;28;8824;-57
2023/01/04 08:37:05;;;;;;;;;0.00;0.00;;;;;9.45;86.19;99911.06;5035849;28;8866;-59
2023/01/04 08:39:34;;;;;;;;;0.00;0.00;;;;;9.47;86.08;99918.91;5036512;28;8922;-57
2023/01/04 08:42:03;;;;;;;;;0.00;0.00;;;;;9.47;86.03;99894.97;5035911;28;8840;-58
2023/01/04 08:44:45;;;;;;;;;0.00;0.00;;;;;9.47;86.60;99901.16;5035398;28;9045;-58
2023/01/04 08:47:13;;;;;;;;;0.00;0.00;;;;;9.49;86.43;99896.56;5035625;28;8943;-58
2023/01/04 08:49:41;;;;;;;;;0.00;0.00;;;;;9.49;86.32;99887.75;5033058;28;8913;-57
2023/01/04 08:52:10;;;;;;;;;0.00;0.00;;;;;9.50;86.17;99892.94;5035653;28;8832;-59
2023/01/04 08:54:38;;;;;;;;;0.00;0.00;;;;;9.54;86.14;99904.19;5034329;28;9511;-58
2023/01/04 08:57:06;;;;;;;;;0.00;0.00;;;;;9.60;86.38;99878.00;5035714;28;8841;-58
2023/01/04 08:59:34;;;;;;;;;1.00;1.00;;;;;9.68;86.23;99880.03;5035110;28;8832;-56
2023/01/04 09:02:02;;;;;;;;;0.00;0.00;;;;;9.75;86.25;99876.81;5035049;28;8840;-58
2023/01/04 09:04:32;;;;;;;;;0.50;0.00;;;;;9.81;86.31;99862.19;5035556;28;8903;-58
2023/01/04 09:07:00;;;;;;;;;0.00;0.00;;;;;9.87;85.66;99862.53;5034414;28;8840;-57
2023/01/04 09:09:28;;;;;;;;;0.00;0.00;;;;;9.94;85.72;99861.09;5034272;28;8849;-57
2023/01/04 09:11:58;;;;;;;;;0.00;0.00;;;;;10.01;85.97;99877.44;5034565;28;8836;-57
2023/01/04 09:14:26;;;;;;;;;0.50;0.50;;;;;10.09;85.55;99859.94;5034990;28;8855;-58
2023/01/04 09:16:54;;;;;;;;;3.25;1.00;;;;;10.13;85.33;99874.69;5035109;28;8871;-58
2023/01/04 09:19:22;;;;;;;;;0.00;0.00;;;;;10.16;85.61;99863.81;5034711;28;8824;-57
2023/01/04 09:21:50;;;;;;;;;0.00;0.00;;;;;10.18;85.13;99848.56;5035326;28;8858;-57
2023/01/04 09:24:18;;;;;;;;;0.00;0.00;;;;;10.22;84.82;99839.38;5035548;28;8856;-58
2023/01/04 09:26:47;;;;;;;;;0.00;0.00;;;;;10.25;85.09;99864.91;5035667;28;8854;-59
2023/01/04 09:29:15;;;;;;;;;0.00;0.00;;;;;10.24;85.22;99850.72;5034410;28;8840;-57
2023/01/04 09:31:43;;;;;;;;;0.00;0.00;;;;;10.25;84.63;99852.41;5034873;28;8829;-56
2023/01/04 09:34:11;;;;;;;;;0.00;0.00;;;;;10.22;85.25;99867.78;5034933;28;8829;-58
2023/01/04 09:36:43;;;;;;;;;0.00;0.00;;;;;10.17;85.04;99859.34;5034798;28;8932;-58
2023/01/04 09:39:11;;;;;;;;;0.00;0.00;;;;;10.10;85.47;99872.25;5034901;28;8808;-59
2023/01/04 09:41:49;;;;;;;;;0.00;0.00;;;;;10.06;85.29;99865.50;5035836;28;8859;-59
2023/01/04 09:44:17;;;;;;;;;0.00;0.00;;;;;10.03;85.71;99855.09;5035466;28;8824;-59
2023/01/04 09:46:45;;;;;;;;;0.00;0.00;;;;;10.02;85.69;99856.03;5035470;28;8859;-58
2023/01/04 09:49:13;;;;;;;;;0.00;0.00;;;;;9.99;86.21;99853.63;5035252;28;8841;-58
2023/01/04 09:51:41;;;;;;;;;0.00;0.00;;;;;9.99;86.07;99847.44;5034461;28;8849;-59
2023/01/04 09:54:10;;;;;;;;;0.00;0.00;;;;;9.98;86.28;99859.91;5034638;28;8832;-58
2023/01/04 09:56:38;;;;;;;;;0.00;0.00;;;;;9.99;86.20;99852.75;5033836;28;8869;-58
2023/01/04 09:59:06;;;;;;;;;0.00;0.00;;;;;10.00;85.99;99860.63;5032632;28;8845;-58
2023/01/04 10:01:36;;;;;;;;;0.00;0.00;;;;;10.01;86.45;99864.97;5032935;28;8883;-57
2023/01/04 10:04:04;;;;;;;;;0.00;0.00;;;;;10.02;86.41;99856.03;5033113;28;8839;-59
2023/01/04 10:06:32;;;;;;;;;0.00;0.00;;;;;10.01;86.94;99849.03;5033236;28;8833;-58
2023/01/04 10:09:00;;;;;;;;;0.00;0.00;;;;;10.01;86.82;99856.16;5033288;28;8848;-57
2023/01/04 10:11:28;;;;;;;;;1.00;0.00;;;;;10.02;86.60;99855.19;5033158;28;8866;-58
2023/01/04 10:13:56;;;;;;;;;0.00;0.00;;;;;10.03;86.60;99849.78;5034025;28;8832;-58
2023/01/04 10:16:24;;;;;;;;;0.50;0.50;;;;;10.04;86.90;99851.50;5034197;28;8863;-58
2023/01/04 10:19:12;;;;;;;;;3.00;2.00;;;;;10.07;86.54;99848.56;5034547;28;8991;-58
2023/01/04 10:22:00;;;;;;;;;0.00;0.00;;;;;10.08;86.83;99846.78;5034580;28;8853;-58
2023/01/04 10:24:29;;;;;;;;;1.00;1.00;;;;;10.08;86.38;99857.41;5034445;28;8841;-57
2023/01/04 10:26:57;;;;;;;;;0.75;0.75;;;;;10.09;86.71;99854.59;5034331;28;8825;-58
2023/01/04 10:29:25;;;;;;;;;0.00;0.00;;;;;10.09;86.45;99843.97;5034458;28;8967;-58
2023/01/04 10:31:53;;;;;;;;;0.00;0.00;;;;;10.11;86.68;99854.50;5034202;28;8856;-58
2023/01/04 10:34:21;;;;;;;;;0.00;0.00;;;;;10.12;86.71;99853.53;5034171;28;8947;-58
2023/01/04 10:36:49;;;;;;;;;1.00;1.00;;;;;10.14;86.71;99846.25;5033019;28;8967;-58
2023/01/04 10:39:18;;;;;;;;;0.00;0.00;;;;;10.14;87.29;99849.78;5033335;28;8844;-57
2023/01/04 10:41:46;;;;;;;;;0.00;0.00;;;;;10.15;86.96;99851.47;5033253;28;8868;-58
2023/01/04 10:44:14;;;;;;;;;0.00;0.00;;;;;10.17;86.61;99844.19;5032036;28;8840;-58
2023/01/04 10:46:42;;;;;;;;;0.50;0.50;;;;;10.18;87.17;99853.88;5032346;28;8852;-57
2023/01/04 10:49:10;;;;;;;;;1.00;1.00;;;;;10.20;86.81;99843.13;5032953;28;8844;-56
2023/01/04 10:51:39;;;;;;;;;0.00;0.00;;;;;10.23;86.75;99840.22;5032020;28;8854;-58
2023/01/04 10:54:07;;;;;;;;;0.00;0.00;;;;;10.26;87.24;99839.97;5032986;28;8841;-58
2023/01/04 10:56:35;;;;;;;;;0.00;0.00;;;;;10.28;86.63;99830.91;5033156;28;8837;-59
2023/01/04 10:59:03;;;;;;;;;0.00;0.00;;;;;10.31;86.53;99835.13;5033213;28;8829;-58
2023/01/04 11:01:31;;;;;;;;;0.00;0.00;;;;;10.32;86.83;99824.34;5033422;28;8868;-59
2023/01/04 11:03:59;;;;;;;;;0.00;0.00;;;;;10.34;86.51;99814.44;5034076;28;8983;-59
2023/01/04 11:06:27;;;;;;;;;0.00;0.00;;;;;10.36;86.32;99803.66;5034171;28;8832;-58
2023/01/04 11:08:55;;;;;;;;;0.50;0.00;;;;;10.41;86.52;99794.31;5034547;28;8848;-57
2023/01/04 11:11:23;;;;;;;;;0.00;0.00;;;;;10.43;86.60;99808.38;5034384;28;9442;-58
2023/01/04 11:13:51;;;;;;;;;0.00;0.00;;;;;10.47;86.61;99795.66;5034347;28;8856;-58
2023/01/04 11:16:20;;;;;;;;;0.00;0.00;;;;;10.50;86.35;99790.94;5033533;28;8837;-57
2023/01/04 11:18:48;;;;;;;;;0.00;0.00;;;;;10.51;87.02;99787.28;5033945;28;8843;-58
2023/01/04 11:21:15;;;;;;;;;0.00;0.00;;;;;10.54;86.84;99802.19;5014386;28;9666;-58
2023/01/04 11:23:43;;;;;;;;;0.00;0.00;;;;;10.55;86.44;99787.91;5016554;28;8838;-57
2023/01/04 11:26:12;;;;;;;;;0.00;0.00;;;;;10.57;86.41;99788.59;5017829;28;8857;-58
2023/01/04 11:28:40;;;;;;;;;0.00;0.00;;;;;10.57;86.59;99781.47;5023128;28;8816;-57
2023/01/04 11:31:09;;;;;;;;;0.00;0.00;;;;;10.58;86.84;99769.84;5037232;28;8829;-58
2023/01/04 11:33:37;;;;;;;;;0.00;0.00;;;;;10.59;86.84;99778.66;5036577;28;8966;-58
2023/01/04 11:36:05;;;;;;;;;0.00;0.00;;;;;10.60;86.67;99772.38;5037515;28;8859;-57
2023/01/04 11:38:33;;;;;;;;;0.00;0.00;;;;;10.61;86.88;99756.28;5037569;28;8848;-58
2023/01/04 11:41:04;;;;;;;;;0.00;0.00;;;;;10.63;87.00;99762.31;5037365;28;8836;-56
2023/01/04 11:43:32;;;;;;;;;0.00;0.00;;;;;10.64;86.68;99765.84;5036884;28;8854;-58
2023/01/04 11:46:00;;;;;;;;;0.75;0.75;;;;;10.66;87.16;99758.56;5036853;28;8840;-57
2023/01/04 11:48:28;;;;;;;;;0.00;0.00;;;;;10.70;86.69;99750.19;5037417;28;8958;-58
2023/01/04 11:50:56;;;;;;;;;0.00;0.00;;;;;10.71;86.53;99740.38;5036633;28;8825;-56
2023/01/04 11:53:25;;;;;;;;;0.00;0.00;;;;;10.73;86.72;99746.41;5036033;28;8867;-58
2023/01/04 11:55:53;;;;;;;;;0.00;0.00;;;;;10.74;86.67;99754.28;5035841;28;8836;-58
2023/01/04 11:58:21;;;;;;;;;0.00;0.00;;;;;10.75;86.55;99734.66;5035700;28;8955;-58
2023/01/04 12:00:49;;;;;;;;;0.00;0.00;;;;;10.79;86.85;99725.47;5035163;28;8867;-58
2023/01/04 12:03:17;;;;;;;;;1.00;1.00;;;;;10.85;87.19;99742.75;5036144;28;8870;-58
2023/01/04 12:05:45;;;;;;;;;0.00;0.00;;;;;10.88;86.46;99727.34;5035435;28;8820;-59
2023/01/04 12:08:13;;;;;;;;;0.00;0.00;;;;;10.91;87.17;99732.41;5035338;28;8840;-58
2023/01/04 12:10:41;;;;;;;;;0.00;0.00;;;;;10.94;86.97;99726.81;5034467;28;8958;-58
2023/01/04 12:13:10;;;;;;;;;1.00;1.00;;;;;10.96;87.00;99735.53;5034818;28;8914;-57
2023/01/04 12:15:38;;;;;;;;;0.75;0.75;;;;;10.99;86.83;99713.13;5036054;28;8860;-58
2023/01/04 12:18:07;;;;;;;;;0.00;0.00;;;;;10.97;87.56;99715.91;5035948;28;8857;-58
2023/01/04 12:20:35;;;;;;;;;0.00;0.00;;;;;10.98;87.47;99738.91;5035852;28;9529;-58
2023/01/04 12:23:02;;;;;;;;;1.00;1.00;;;;;10.99;87.58;99724.63;5035280;28;8833;-58
2023/01/04 12:25:30;;;;;;;;;0.00;0.00;;;;;11.00;87.63;99726.28;5035625;28;8828;-57
2023/01/04 12:27:59;;;;;;;;;0.50;0.50;;;;;11.01;87.21;99733.31;5016756;28;8961;-58
2023/01/04 12:30:27;;;;;;;;;0.00;0.00;;;;;11.02;87.46;99729.69;5016063;28;8981;-58
2023/01/04 12:32:55;;;;;;;;;0.00;0.00;;;;;11.04;87.56;99716.22;5016251;28;8834;-58
2023/01/04 12:35:23;;;;;;;;;1.00;1.00;;;;;11.04;87.21;99722.41;5015368;28;8865;-58